Time;durP1;ratioP1;P1;durP2;ratioP2;P2;SDS_P1;SDS_P2;PMS_P1;PMS_P2;Temp;Humidity;BMP_temperature;BMP_pressure;BME280_temperature;BME280_humidity;BME280_pressure;Samples;Min_cycle;Max_cycle;Signal;HPM_P1;HPM_P2
2022/09/14 00:00:41;;;;;;;5.07;2.22;;;17.30;98.50;;;;;;5090688;28;20471;-72
2022/09/14 00:03:07;;;;;;;5.53;2.72;;;17.20;98.50;;;;;;5094049;28;20094;-72
2022/09/14 00:05:36;;;;;;;5.70;2.00;;;17.30;98.50;;;;;;5093362;28;20052;-72
2022/09/14 00:08:02;;;;;;;5.25;2.30;;;17.20;98.50;;;;;;5075378;28;20020;-72
2022/09/14 00:10:28;;;;;;;6.15;2.45;;;17.20;98.50;;;;;;5083947;28;20016;-72
2022/09/14 00:12:54;;;;;;;8.13;2.83;;;17.20;98.50;;;;;;5093395;28;20054;-73
2022/09/14 00:15:19;;;;;;;3.92;2.00;;;17.20;98.50;;;;;;5091904;28;20039;-73
2022/09/14 00:17:45;;;;;;;7.85;3.00;;;17.10;98.50;;;;;;5092634;28;20024;-73
2022/09/14 00:20:10;;;;;;;7.90;2.28;;;17.10;98.50;;;;;;5089038;28;20073;-72
2022/09/14 00:22:36;;;;;;;6.55;2.35;;;17.10;98.50;;;;;;5092493;28;20024;-72
2022/09/14 00:25:02;;;;;;;3.75;2.13;;;17.10;98.50;;;;;;5091998;28;20521;-71
2022/09/14 00:27:28;;;;;;;5.95;2.67;;;17.00;98.50;;;;;;5092779;28;20031;-71
2022/09/14 00:29:53;;;;;;;5.65;2.08;;;17.10;98.60;;;;;;5091892;28;20040;-72
2022/09/14 00:32:19;;;;;;;4.90;2.28;;;17.00;98.70;;;;;;5091389;28;20036;-71
2022/09/14 00:34:44;;;;;;;9.15;2.45;;;17.00;98.50;;;;;;5090965;28;20050;-71
2022/09/14 00:37:10;;;;;;;8.82;3.20;;;17.00;98.60;;;;;;5092030;28;20053;-72
2022/09/14 00:39:36;;;;;;;21.25;3.58;;;17.00;98.60;;;;;;5090169;28;20016;-71
2022/09/14 00:42:03;;;;;;;4.88;2.72;;;17.00;98.60;;;;;;5093265;28;20429;-72
2022/09/14 00:44:29;;;;;;;8.45;2.33;;;17.00;98.50;;;;;;5091441;28;20016;-72
2022/09/14 00:47:01;;;;;;;6.65;2.20;;;17.00;98.60;;;;;;5091952;28;20502;-73
2022/09/14 00:49:31;;;;;;;6.15;3.33;;;17.00;98.60;;;;;;5090564;28;20114;-74
2022/09/14 00:52:18;;;;;;;5.45;2.08;;;17.00;98.60;;;;;;5091429;28;20036;-74
2022/09/14 00:54:47;;;;;;;3.22;1.88;;;17.00;98.60;;;;;;5089871;28;20103;-73
2022/09/14 00:57:15;;;;;;;5.78;2.00;;;16.90;98.60;;;;;;5091867;28;20035;-73
2022/09/14 00:59:41;;;;;;;5.25;2.60;;;16.90;98.70;;;;;;5090641;28;20379;-73
2022/09/14 01:02:09;;;;;;;7.47;2.20;;;16.90;98.70;;;;;;5075409;28;20040;-73
2022/09/14 01:04:35;;;;;;;4.10;2.17;;;16.90;98.70;;;;;;5091263;28;20028;-74
2022/09/14 01:07:05;;;;;;;6.00;2.22;;;16.90;98.60;;;;;;5075393;28;20077;-73
2022/09/14 01:09:54;;;;;;;6.05;2.08;;;16.90;98.70;;;;;;5089975;28;20024;-73
2022/09/14 01:12:43;;;;;;;4.57;2.10;;;16.80;98.80;;;;;;5076087;28;20047;-73
2022/09/14 01:15:40;;;;;;;4.45;1.92;;;16.80;98.70;;;;;;5072873;28;20430;-73
2022/09/14 01:18:22;;;;;;;4.03;1.80;;;16.80;98.70;;;;;;5080030;28;20028;-73
2022/09/14 01:21:15;;;;;;;3.92;2.05;;;16.80;98.90;;;;;;5091169;28;20022;-73
2022/09/14 01:23:58;;;;;;;5.18;1.73;;;16.70;98.80;;;;;;5091255;28;20072;-73
2022/09/14 01:26:29;;;;;;;5.85;2.58;;;16.70;98.90;;;;;;5085285;28;20056;-73
2022/09/14 01:29:10;;;;;;;4.10;1.85;;;16.70;98.90;;;;;;5086834;28;20035;-72
2022/09/14 01:31:49;;;;;;;5.30;1.80;;;16.70;98.90;;;;;;5088259;28;20051;-72
2022/09/14 01:34:33;;;;;;;7.32;1.90;;;16.70;99.00;;;;;;5091132;28;20059;-72
2022/09/14 01:37:11;;;;;;;5.85;2.00;;;16.70;99.00;;;;;;5091068;28;20084;-72
2022/09/14 01:39:42;;;;;;;4.72;1.67;;;16.70;99.00;;;;;;5091559;28;20036;-73
2022/09/14 01:42:11;;;;;;;8.10;2.30;;;16.70;99.10;;;;;;5090194;28;20034;-72
2022/09/14 01:44:41;;;;;;;3.53;1.80;;;16.70;99.20;;;;;;5089601;28;20036;-73
2022/09/14 01:47:25;;;;;;;3.95;2.20;;;16.60;99.20;;;;;;5091153;28;20036;-73
2022/09/14 01:49:58;;;;;;;4.35;2.10;;;16.60;99.20;;;;;;5090917;28;20040;-73
2022/09/14 01:52:35;;;;;;;8.23;2.97;;;16.60;99.40;;;;;;5090710;28;20036;-73
2022/09/14 01:55:08;;;;;;;3.78;1.88;;;16.50;99.30;;;;;;5090543;28;20417;-73
2022/09/14 01:57:47;;;;;;;7.03;2.40;;;16.50;99.30;;;;;;5091782;28;20032;-73
2022/09/14 02:00:15;;;;;;;7.50;2.10;;;16.50;99.30;;;;;;5088808;28;20035;-73
2022/09/14 02:02:59;;;;;;;8.15;3.55;;;16.50;99.30;;;;;;5091035;28;20020;-73
2022/09/14 02:05:33;;;;;;;4.20;1.92;;;16.50;99.30;;;;;;5089477;28;20558;-75
2022/09/14 02:07:59;;;;;;;;;;;16.40;99.30;;;;;;5083189;28;20042;-73
2022/09/14 02:10:25;;;;;;;3.92;2.05;;;16.40;99.20;;;;;;5090300;28;19904;-73
2022/09/14 02:12:53;;;;;;;9.48;2.10;;;16.40;99.30;;;;;;5091379;28;20047;-73
2022/09/14 02:15:19;;;;;;;3.22;1.95;;;16.40;99.50;;;;;;5088870;28;20028;-73
2022/09/14 02:17:46;;;;;;;5.97;2.00;;;16.40;99.50;;;;;;5071170;28;20028;-74
2022/09/14 02:20:27;;;;;;;5.60;2.38;;;16.30;99.60;;;;;;5085003;28;20033;-73
2022/09/14 02:22:54;;;;;;;5.65;2.80;;;16.40;99.70;;;;;;5089886;28;20032;-74
2022/09/14 02:25:20;;;;;;;6.60;2.88;;;16.40;99.60;;;;;;5092393;28;20024;-73
2022/09/14 02:27:47;;;;;;;4.30;1.90;;;16.40;99.70;;;;;;5088898;28;20112;-74
2022/09/14 02:30:13;;;;;;;6.38;2.17;;;16.30;99.80;;;;;;5093351;28;20052;-73
2022/09/14 02:32:42;;;;;;;5.88;2.10;;;16.30;99.80;;;;;;5090571;28;20071;-73
2022/09/14 02:35:59;;;;;;;5.90;2.50;;;16.30;99.90;;;;;;5091805;28;20047;-72
2022/09/14 02:38:49;;;;;;;5.07;2.70;;;16.30;99.80;;;;;;5034366;28;20038;-73
2022/09/14 02:41:24;;;;;;;4.57;2.53;;;16.20;99.80;;;;;;5085077;28;20028;-72
2022/09/14 02:44:01;;;;;;;8.13;2.80;;;16.20;99.90;;;;;;5092471;28;20059;-72
2022/09/14 02:46:48;;;;;;;6.55;2.38;;;16.20;99.90;;;;;;5090902;28;20020;-72
2022/09/14 02:49:17;;;;;;;5.28;2.30;;;16.20;99.90;;;;;;5091369;28;20062;-72
2022/09/14 02:52:09;;;;;;;5.28;2.83;;;16.20;99.90;;;;;;5091758;28;20074;-72
2022/09/14 02:54:45;;;;;;;6.00;3.28;;;16.10;99.90;;;;;;5089276;28;20043;-72
2022/09/14 02:57:11;;;;;;;9.02;3.30;;;16.10;99.90;;;;;;5095602;28;20028;-72
2022/09/14 02:59:37;;;;;;;6.80;2.45;;;16.10;99.90;;;;;;5094192;28;20028;-72
2022/09/14 03:02:02;;;;;;;6.25;2.80;;;16.10;99.90;;;;;;5095623;28;20051;-73
2022/09/14 03:04:28;;;;;;;4.38;2.30;;;16.20;99.90;;;;;;5101790;28;20032;-73
2022/09/14 03:06:53;;;;;;;5.25;2.30;;;16.10;99.90;;;;;;5101153;28;20035;-74
2022/09/14 03:09:19;;;;;;;10.80;3.08;;;16.10;99.90;;;;;;5106481;28;20031;-72
2022/09/14 03:11:45;;;;;;;7.10;2.30;;;16.10;99.90;;;;;;5106185;28;20499;-70
2022/09/14 03:14:10;;;;;;;5.05;2.22;;;16.10;99.90;;;;;;5106259;28;20086;-71
2022/09/14 03:16:37;;;;;;;4.18;2.03;;;16.10;99.90;;;;;;5105709;28;20032;-70
2022/09/14 03:19:04;;;;;;;5.85;2.20;;;16.10;99.90;;;;;;5102076;28;20043;-71
2022/09/14 03:21:31;;;;;;;5.50;2.45;;;16.10;99.90;;;;;;5098450;28;20040;-71
2022/09/14 03:23:56;;;;;;;4.70;2.28;;;16.10;99.90;;;;;;5104428;28;20415;-70
2022/09/14 03:26:23;;;;;;;4.20;2.30;;;16.10;99.90;;;;;;5106223;28;20035;-71
2022/09/14 03:28:54;;;;;;;6.50;2.13;;;16.10;99.90;;;;;;5101481;28;20024;-70
2022/09/14 03:31:21;;;;;;;4.78;1.98;;;16.10;99.90;;;;;;5109150;28;20054;-70
2022/09/14 03:33:50;;;;;;;4.50;2.03;;;16.10;99.90;;;;;;5106685;28;20027;-70
2022/09/14 03:36:18;;;;;;;4.40;2.10;;;16.10;99.90;;;;;;5099821;28;20028;-71
2022/09/14 03:38:45;;;;;;;5.28;2.10;;;16.10;99.90;;;;;;5097542;28;20490;-71
2022/09/14 03:41:12;;;;;;;4.63;2.53;;;16.10;99.90;;;;;;5096254;28;20027;-70
2022/09/14 03:43:37;;;;;;;4.25;2.30;;;16.10;99.90;;;;;;5097551;28;20047;-72
2022/09/14 03:46:05;;;;;;;4.90;2.40;;;16.10;99.90;;;;;;5092863;28;20025;-71
2022/09/14 03:48:31;;;;;;;5.85;2.22;;;16.10;99.90;;;;;;5081673;28;20084;-70
2022/09/14 03:51:00;;;;;;;6.60;2.63;;;16.10;99.90;;;;;;5100175;28;20071;-71
2022/09/14 03:53:25;;;;;;;4.97;2.22;;;16.10;99.90;;;;;;5094677;28;20028;-70
2022/09/14 03:55:51;;;;;;;5.30;2.97;;;16.10;99.90;;;;;;5092187;28;20028;-71
2022/09/14 03:58:16;;;;;;;4.72;2.55;;;16.10;99.90;;;;;;5102058;28;20542;-69
2022/09/14 04:00:42;;;;;;;10.45;2.50;;;16.00;99.90;;;;;;5094712;28;20032;-71
2022/09/14 04:03:07;;;;;;;8.05;2.28;;;16.10;99.90;;;;;;5095300;28;20028;-71
2022/09/14 04:05:33;;;;;;;5.88;2.30;;;16.00;99.90;;;;;;5093828;28;20063;-71
2022/09/14 04:07:58;;;;;;;5.35;2.35;;;16.00;99.90;;;;;;5094896;28;20074;-71
2022/09/14 04:10:24;;;;;;;7.05;2.47;;;16.00;99.90;;;;;;5091016;28;20042;-70
2022/09/14 04:12:50;;;;;;;6.47;2.58;;;16.00;99.90;;;;;;5092843;28;20086;-71
2022/09/14 04:15:15;;;;;;;7.40;2.00;;;16.00;99.90;;;;;;5092668;28;20463;-71
2022/09/14 04:17:41;;;;;;;5.13;2.58;;;16.00;99.90;;;;;;5092609;28;20118;-71
2022/09/14 04:20:07;;;;;;;7.40;2.72;;;16.00;99.90;;;;;;5093165;28;20050;-71
2022/09/14 04:22:33;;;;;;;4.07;1.88;;;16.00;99.90;;;;;;5088397;28;20032;-71
2022/09/14 04:24:58;;;;;;;4.40;2.88;;;15.90;99.90;;;;;;5093960;28;20028;-71
2022/09/14 04:27:24;;;;;;;4.88;2.20;;;15.90;99.90;;;;;;5097002;28;20036;-72
2022/09/14 04:29:50;;;;;;;5.60;2.00;;;15.90;99.90;;;;;;5092296;28;20067;-72
2022/09/14 04:32:16;;;;;;;6.30;3.13;;;15.80;99.90;;;;;;5088290;28;20127;-71
2022/09/14 04:34:41;;;;;;;6.93;2.58;;;15.80;99.90;;;;;;5108407;28;20012;-71
2022/09/14 04:37:07;;;;;;;4.63;2.35;;;15.80;99.90;;;;;;5102866;28;20047;-71
2022/09/14 04:39:33;;;;;;;3.80;2.35;;;15.70;99.90;;;;;;5091785;28;20550;-71
2022/09/14 04:41:58;;;;;;;5.20;2.50;;;15.70;99.90;;;;;;5091194;28;20110;-71
2022/09/14 04:44:24;;;;;;;4.57;2.45;;;15.70;99.90;;;;;;5092108;28;20020;-72
2022/09/14 04:46:49;;;;;;;8.25;2.70;;;15.80;99.90;;;;;;5090789;28;20039;-72
2022/09/14 04:49:17;;;;;;;7.88;2.95;;;15.70;99.90;;;;;;5090430;28;20027;-71
2022/09/14 04:51:43;;;;;;;6.60;3.08;;;15.70;99.90;;;;;;5091833;28;20043;-71
2022/09/14 04:54:13;;;;;;;3.65;2.63;;;15.70;99.90;;;;;;5092416;28;20031;-70
2022/09/14 04:56:38;;;;;;;6.82;2.83;;;15.70;99.90;;;;;;5090283;28;20051;-71
2022/09/14 04:59:04;;;;;;;7.10;2.70;;;15.70;99.90;;;;;;5091561;28;20028;-71
2022/09/14 05:01:33;;;;;;;4.38;2.50;;;15.70;99.90;;;;;;5081453;28;20024;-71
2022/09/14 05:03:59;;;;;;;5.25;2.67;;;15.70;99.90;;;;;;5078888;28;20028;-71
2022/09/14 05:06:28;;;;;;;6.15;2.55;;;15.70;99.90;;;;;;5082214;28;20031;-71
2022/09/14 05:08:54;;;;;;;6.20;2.55;;;15.80;99.90;;;;;;5092492;28;20039;-71
2022/09/14 05:11:23;;;;;;;4.50;2.40;;;15.80;99.90;;;;;;5090977;28;20042;-71
2022/09/14 05:13:49;;;;;;;4.63;2.25;;;15.80;99.90;;;;;;5076647;28;20560;-71
2022/09/14 05:16:15;;;;;;;7.50;2.72;;;15.80;99.90;;;;;;5073181;28;20033;-71
2022/09/14 05:18:41;;;;;;;5.88;2.53;;;15.80;99.90;;;;;;5078416;28;20028;-71
2022/09/14 05:21:09;;;;;;;4.88;2.20;;;15.80;99.90;;;;;;5089972;28;20059;-71
2022/09/14 05:23:35;;;;;;;6.10;2.85;;;15.90;99.90;;;;;;5091440;28;20096;-71
2022/09/14 05:26:01;;;;;;;8.27;2.72;;;15.90;99.90;;;;;;5073831;28;20117;-71
2022/09/14 05:28:27;;;;;;;5.18;2.47;;;15.90;99.90;;;;;;5089282;28;20426;-70
2022/09/14 05:30:53;;;;;;;7.38;2.72;;;15.90;99.90;;;;;;5093340;28;20043;-71
2022/09/14 05:33:19;;;;;;;8.10;2.20;;;15.90;99.90;;;;;;5089937;28;20127;-71
2022/09/14 05:35:45;;;;;;;3.28;1.92;;;16.00;99.90;;;;;;5087253;28;20078;-71
2022/09/14 05:38:11;;;;;;;5.00;2.20;;;16.00;99.90;;;;;;5091250;28;20032;-71
2022/09/14 05:40:36;;;;;;;4.97;2.38;;;16.00;99.90;;;;;;5091067;28;20260;-71
2022/09/14 05:43:02;;;;;;;5.03;2.58;;;16.10;99.90;;;;;;5089403;28;20027;-71
2022/09/14 05:45:27;;;;;;;5.97;2.33;;;16.10;99.90;;;;;;5089808;28;20069;-71
2022/09/14 05:47:53;;;;;;;5.10;2.50;;;16.10;99.90;;;;;;5091707;28;20077;-71
2022/09/14 05:50:19;;;;;;;4.97;2.10;;;16.10;99.90;;;;;;5090191;28;20031;-71
2022/09/14 05:52:44;;;;;;;3.72;2.40;;;16.10;99.90;;;;;;5071755;28;20033;-71
2022/09/14 05:55:10;;;;;;;5.13;2.95;;;16.20;99.90;;;;;;5080083;28;20032;-71
2022/09/14 05:57:36;;;;;;;5.10;2.28;;;16.20;99.90;;;;;;5072043;28;20027;-71
2022/09/14 06:00:03;;;;;;;4.68;2.22;;;16.20;99.90;;;;;;5080764;28;20024;-71
2022/09/14 06:02:28;;;;;;;4.80;2.47;;;16.20;99.90;;;;;;5077192;28;20034;-73
2022/09/14 06:04:54;;;;;;;5.93;2.30;;;16.20;99.90;;;;;;5086490;28;20043;-74
2022/09/14 06:07:19;;;;;;;6.75;2.63;;;16.20;99.90;;;;;;5073643;28;20029;-72
2022/09/14 06:09:45;;;;;;;7.78;2.60;;;16.20;99.90;;;;;;5083616;28;20062;-73
2022/09/14 06:12:10;;;;;;;6.75;2.50;;;16.20;99.90;;;;;;5080759;28;20032;-73
2022/09/14 06:14:36;;;;;;;4.72;2.97;;;16.30;99.90;;;;;;5083937;28;20031;-73
2022/09/14 06:17:04;;;;;;;5.72;2.78;;;16.30;99.90;;;;;;5081696;28;20540;-73
2022/09/14 06:19:30;;;;;;;6.95;2.72;;;16.30;99.90;;;;;;5080352;28;20103;-77
2022/09/14 06:21:55;;;;;;;9.38;3.10;;;16.40;99.90;;;;;;5064700;28;20150;-73
2022/09/14 06:24:21;;;;;;;4.68;2.72;;;16.40;99.90;;;;;;5075229;28;20113;-73
2022/09/14 06:26:46;;;;;;;7.03;2.50;;;16.40;99.90;;;;;;5087010;28;20032;-72
2022/09/14 06:29:12;;;;;;;7.03;2.40;;;16.40;99.90;;;;;;5082547;28;20379;-73
2022/09/14 06:31:37;;;;;;;8.05;2.72;;;16.50;99.90;;;;;;5086643;28;20415;-72
2022/09/14 06:34:03;;;;;;;6.65;2.53;;;16.50;99.90;;;;;;5088081;28;20074;-72
2022/09/14 06:36:29;;;;;;;6.60;2.78;;;16.50;99.90;;;;;;5085433;28;20058;-72
2022/09/14 06:38:55;;;;;;;10.68;2.92;;;16.60;99.90;;;;;;5091081;28;20058;-72
2022/09/14 06:41:25;;;;;;;6.60;2.75;;;16.60;99.90;;;;;;5086600;28;20020;-71
2022/09/14 06:43:51;;;;;;;7.25;2.50;;;16.70;99.90;;;;;;5081642;28;20568;-72
2022/09/14 06:46:22;;;;;;;8.32;2.75;;;16.80;99.90;;;;;;5093214;28;20071;-72
2022/09/14 06:48:58;;;;;;;13.30;3.50;;;16.80;99.90;;;;;;5090119;28;20401;-72
2022/09/14 06:51:38;;;;;;;6.60;2.63;;;16.80;99.90;;;;;;5080644;28;20056;-72
2022/09/14 06:54:05;;;;;;;6.88;2.83;;;16.90;99.90;;;;;;5084807;28;20106;-73
2022/09/14 06:56:36;;;;;;;11.27;3.05;;;16.90;99.90;;;;;;5090811;28;20090;-72
2022/09/14 06:59:02;;;;;;;8.70;2.88;;;17.00;99.90;;;;;;5091559;28;20024;-73
2022/09/14 07:01:28;;;;;;;4.90;2.45;;;17.00;99.90;;;;;;5090625;28;20036;-72
2022/09/14 07:03:55;;;;;;;11.60;3.20;;;17.10;99.90;;;;;;5086514;28;20387;-71
2022/09/14 07:06:26;;;;;;;7.45;2.55;;;17.20;99.90;;;;;;5090835;28;20122;-71
2022/09/14 07:08:52;;;;;;;9.27;2.95;;;17.20;99.80;;;;;;5092513;28;20047;-72
2022/09/14 07:11:21;;;;;;;6.80;3.20;;;17.30;99.80;;;;;;5095137;28;20032;-72
2022/09/14 07:13:47;;;;;;;5.90;2.60;;;17.30;99.60;;;;;;5088622;28;20036;-72
2022/09/14 07:16:13;;;;;;;7.03;2.22;;;17.40;99.60;;;;;;5092197;28;20024;-72
2022/09/14 07:18:39;;;;;;;7.70;2.38;;;17.40;99.50;;;;;;5074648;28;20040;-73
2022/09/14 07:21:07;;;;;;;4.68;2.35;;;17.50;99.40;;;;;;5089950;28;20032;-73
2022/09/14 07:23:35;;;;;;;9.82;3.03;;;17.50;99.30;;;;;;5092162;28;20028;-73
2022/09/14 07:26:10;;;;;;;8.57;2.33;;;17.50;99.30;;;;;;5083598;28;20025;-72
2022/09/14 07:28:37;;;;;;;7.55;2.55;;;17.50;99.20;;;;;;5091083;28;20039;-70
2022/09/14 07:31:12;;;;;;;5.85;2.60;;;17.50;99.20;;;;;;5089815;28;20044;-70
2022/09/14 07:33:37;;;;;;;6.63;2.38;;;17.50;99.20;;;;;;5091870;28;20051;-70
2022/09/14 07:36:08;;;;;;;9.13;3.22;;;17.60;99.20;;;;;;5076278;28;20036;-70
2022/09/14 07:38:34;;;;;;;9.60;3.13;;;17.60;99.20;;;;;;5087055;28;20028;-70
2022/09/14 07:41:00;;;;;;;10.02;3.70;;;17.60;99.10;;;;;;5079060;28;20103;-70
2022/09/14 07:43:25;;;;;;;9.38;3.10;;;17.60;99.00;;;;;;5076207;28;20431;-70
2022/09/14 07:45:51;;;;;;;7.25;2.50;;;17.60;99.20;;;;;;5086777;28;20103;-70
2022/09/14 07:48:17;;;;;;;6.07;2.72;;;17.70;99.10;;;;;;5081379;28;20105;-70
2022/09/14 07:50:42;;;;;;;8.13;2.78;;;17.80;99.10;;;;;;5082620;28;20063;-69
2022/09/14 07:53:08;;;;;;;6.13;2.50;;;17.90;99.00;;;;;;5091224;28;20055;-69
2022/09/14 07:55:33;;;;;;;7.97;2.35;;;18.00;98.90;;;;;;5082176;28;20062;-68
2022/09/14 07:57:59;;;;;;;8.35;2.10;;;18.00;98.60;;;;;;5090003;28;20118;-70
2022/09/14 08:00:24;;;;;;;7.53;2.47;;;18.10;98.70;;;;;;5091588;28;20097;-69
2022/09/14 08:02:54;;;;;;;6.93;2.40;;;18.20;98.20;;;;;;5087238;28;20035;-69
2022/09/14 08:05:21;;;;;;;6.90;2.47;;;18.20;98.30;;;;;;5089498;28;20054;-70
2022/09/14 08:07:46;;;;;;;7.30;2.80;;;18.30;98.10;;;;;;5088253;28;20024;-69
2022/09/14 08:10:12;;;;;;;10.43;2.35;;;18.50;97.40;;;;;;5081803;28;20085;-70
2022/09/14 08:12:38;;;;;;;8.68;2.60;;;18.50;97.60;;;;;;5092147;28;20039;-69
2022/09/14 08:15:04;;;;;;;8.05;2.47;;;18.50;97.50;;;;;;5086470;28;20016;-70
2022/09/14 08:17:29;;;;;;;7.05;2.30;;;18.60;97.20;;;;;;5086970;28;20233;-70
2022/09/14 08:19:55;;;;;;;6.45;2.55;;;18.60;97.10;;;;;;5092352;28;20028;-70
2022/09/14 08:22:21;;;;;;;5.43;2.25;;;18.70;97.10;;;;;;5079615;28;20082;-69
2022/09/14 08:24:46;;;;;;;9.48;2.78;;;18.80;96.90;;;;;;5077580;28;20028;-69
2022/09/14 08:27:12;;;;;;;9.30;2.13;;;18.70;96.80;;;;;;5088128;28;20032;-70
2022/09/14 08:29:38;;;;;;;9.30;2.90;;;18.80;96.70;;;;;;5087167;28;20107;-69
2022/09/14 08:32:04;;;;;;;10.20;3.58;;;18.70;96.50;;;;;;5085499;28;20123;-70
2022/09/14 08:34:29;;;;;;;6.10;2.78;;;18.80;96.70;;;;;;5091955;28;20111;-70
2022/09/14 08:36:55;;;;;;;6.88;2.35;;;18.80;96.70;;;;;;5089722;28;20114;-70
2022/09/14 08:39:20;;;;;;;6.88;2.60;;;18.90;96.60;;;;;;5092851;28;20099;-69
2022/09/14 08:41:53;;;;;;;7.57;2.45;;;19.00;96.60;;;;;;5084969;28;20119;-69
2022/09/14 08:44:37;;;;;;;5.07;2.13;;;19.20;96.40;;;;;;5089694;28;20043;-70
2022/09/14 08:47:20;;;;;;;5.13;1.90;;;19.30;96.20;;;;;;5084794;28;20067;-69
2022/09/14 08:49:47;;;;;;;9.20;2.42;;;19.40;95.90;;;;;;5080977;28;20036;-69
2022/09/14 08:52:34;;;;;;;6.38;2.67;;;19.50;96.00;;;;;;5084548;28;20051;-69
2022/09/14 08:55:25;;;;;;;5.25;2.30;;;19.60;95.80;;;;;;5085249;28;20036;-71
2022/09/14 08:58:11;;;;;;;6.30;1.70;;;19.80;95.50;;;;;;5084410;28;20028;-70
2022/09/14 09:00:47;;;;;;;8.90;2.90;;;19.80;94.80;;;;;;5089296;28;20145;-71
2022/09/14 09:03:28;;;;;;;5.40;2.30;;;19.90;94.50;;;;;;5092065;28;20063;-71
2022/09/14 09:06:00;;;;;;;8.15;2.78;;;20.00;94.30;;;;;;5090142;28;20035;-71
2022/09/14 09:08:54;;;;;;;5.65;2.30;;;20.00;94.30;;;;;;5092283;28;20020;-70
2022/09/14 09:11:24;;;;;;;5.38;2.35;;;20.00;93.60;;;;;;5091216;28;20032;-71
2022/09/14 09:13:51;;;;;;;6.13;1.98;;;20.00;93.40;;;;;;5091150;28;20031;-71
2022/09/14 09:16:21;;;;;;;5.82;1.70;;;20.00;93.50;;;;;;5083312;28;20071;-71
2022/09/14 09:19:05;;;;;;;6.22;2.63;;;20.00;93.30;;;;;;5088081;28;20031;-70
2022/09/14 09:21:42;;;;;;;15.13;2.80;;;20.10;93.20;;;;;;5081559;28;20036;-71
2022/09/14 09:24:24;;;;;;;4.00;2.03;;;20.20;93.10;;;;;;5078847;28;20052;-70
2022/09/14 09:26:50;;;;;;;5.07;2.30;;;20.10;92.70;;;;;;5078772;28;20032;-71
2022/09/14 09:29:16;;;;;;;6.90;2.60;;;20.10;92.70;;;;;;5084958;28;20066;-69
2022/09/14 09:31:46;;;;;;;9.60;2.72;;;20.00;92.80;;;;;;5078233;28;20044;-71
2022/09/14 09:34:14;;;;;;;4.45;1.80;;;20.00;92.30;;;;;;5071533;28;20028;-70
2022/09/14 09:36:45;;;;;;;8.52;2.75;;;20.00;92.30;;;;;;5086259;28;20110;-71
2022/09/14 09:39:11;;;;;;;5.95;2.17;;;19.90;92.20;;;;;;5090818;28;20030;-71
2022/09/14 09:41:47;;;;;;;7.82;2.50;;;19.90;92.30;;;;;;5091017;28;20031;-70
2022/09/14 09:44:13;;;;;;;7.35;3.08;;;19.90;92.30;;;;;;5107407;28;20051;-70
2022/09/14 09:46:49;;;;;;;9.05;2.22;;;19.90;92.50;;;;;;5105691;28;20028;-70
2022/09/14 09:49:38;;;;;;;7.75;2.28;;;20.00;92.50;;;;;;5091906;28;20062;-70
2022/09/14 09:52:14;;;;;;;7.30;2.42;;;20.10;92.50;;;;;;5090641;28;20032;-70
2022/09/14 09:54:42;;;;;;;4.75;1.90;;;20.10;92.40;;;;;;5090848;28;20417;-70
2022/09/14 09:57:32;;;;;;;7.57;2.28;;;20.20;92.20;;;;;;5090278;28;20347;-70
2022/09/14 10:00:23;;;;;;;4.13;1.90;;;20.20;91.70;;;;;;5070456;28;20111;-71
2022/09/14 10:02:49;;;;;;;7.70;2.20;;;20.20;91.60;;;;;;5071502;28;20375;-70
2022/09/14 10:05:24;;;;;;;8.00;2.88;;;20.20;91.40;;;;;;5075008;28;20029;-70
2022/09/14 10:08:01;;;;;;;6.40;2.40;;;20.20;91.90;;;;;;5075433;28;20388;-70
2022/09/14 10:10:33;;;;;;;7.70;2.60;;;20.30;92.00;;;;;;5074711;28;20039;-69
2022/09/14 10:12:59;;;;;;;9.80;2.70;;;20.40;91.90;;;;;;5075522;28;20387;-70
2022/09/14 10:15:28;;;;;;;4.30;1.90;;;20.40;91.50;;;;;;5076024;28;20020;-71
2022/09/14 10:17:55;;;;;;;5.93;2.03;;;20.40;91.10;;;;;;5075250;28;20130;-70
2022/09/14 10:20:23;;;;;;;5.38;1.85;;;20.50;91.10;;;;;;5092501;28;20107;-70
2022/09/14 10:22:50;;;;;;;6.18;1.90;;;20.50;91.20;;;;;;5111266;28;20038;-70
2022/09/14 10:25:15;;;;;;;7.18;2.40;;;20.50;90.80;;;;;;5096260;28;20114;-70
2022/09/14 10:27:55;;;;;;;5.82;2.08;;;20.40;90.60;;;;;;5095378;28;20106;-71
2022/09/14 10:30:23;;;;;;;3.80;2.10;;;20.40;90.90;;;;;;5092589;28;20048;-70
2022/09/14 10:33:01;;;;;;;6.70;2.22;;;20.60;91.00;;;;;;5076833;28;20595;-71
2022/09/14 10:36:07;;;;;;;4.97;1.83;;;20.70;90.90;;;;;;5093750;28;20386;-71
2022/09/14 10:39:02;;;;;;;4.78;2.17;;;20.80;91.00;;;;;;5075422;28;20484;-71
2022/09/14 10:41:44;;;;;;;7.72;2.13;;;20.90;90.70;;;;;;5076051;28;20057;-71
2022/09/14 10:44:56;;;;;;;6.00;2.10;;;21.00;90.40;;;;;;5095217;28;20581;-71
2022/09/14 10:47:50;;;;;;;6.03;2.22;;;20.90;90.00;;;;;;5084513;28;20066;-71
2022/09/14 10:50:46;;;;;;;5.15;1.85;;;21.00;90.10;;;;;;5075870;28;20040;-71
2022/09/14 10:53:39;;;;;;;4.43;1.88;;;21.00;90.00;;;;;;5093846;28;20032;-70
2022/09/14 10:56:14;;;;;;;6.38;2.38;;;21.10;89.70;;;;;;5092936;28;20495;-71
2022/09/14 10:59:12;;;;;;;5.80;1.98;;;21.20;89.50;;;;;;5093967;28;20534;-71
2022/09/14 11:02:08;;;;;;;6.75;1.95;;;21.30;88.90;;;;;;5092602;28;20500;-70
2022/09/14 11:04:43;;;;;;;4.43;1.77;;;21.30;88.90;;;;;;5093951;28;20482;-70
2022/09/14 11:07:34;;;;;;;5.38;1.95;;;21.40;88.90;;;;;;5085886;28;20031;-69
2022/09/14 11:10:20;;;;;;;6.85;2.08;;;21.50;88.40;;;;;;5074113;28;20024;-70
2022/09/14 11:13:17;;;;;;;6.22;2.03;;;21.60;88.40;;;;;;5078495;28;20036;-71
2022/09/14 11:16:04;;;;;;;5.80;2.35;;;21.70;88.30;;;;;;5092702;28;20041;-71
2022/09/14 11:18:33;;;;;;;7.88;1.95;;;21.70;87.20;;;;;;5092061;28;20027;-71
2022/09/14 11:21:09;;;;;;;7.43;2.40;;;21.70;87.40;;;;;;5093821;28;20048;-70
2022/09/14 11:23:42;;;;;;;6.47;2.22;;;21.60;87.40;;;;;;5093333;28;20036;-71
2022/09/14 11:26:32;;;;;;;4.63;2.20;;;21.60;88.00;;;;;;5089680;28;20028;-71
2022/09/14 11:29:20;;;;;;;5.50;2.33;;;21.60;86.90;;;;;;5094332;28;20032;-71
2022/09/14 11:32:12;;;;;;;4.20;1.92;;;21.60;86.50;;;;;;5073809;28;20036;-71
2022/09/14 11:34:42;;;;;;;5.93;2.30;;;21.60;87.00;;;;;;5073029;28;20039;-71
2022/09/14 11:37:16;;;;;;;5.72;1.98;;;21.60;87.40;;;;;;5074987;28;20036;-71
2022/09/14 11:40:01;;;;;;;5.35;1.80;;;21.70;87.20;;;;;;5082425;28;20028;-71
2022/09/14 11:42:36;;;;;;;6.72;2.80;;;21.80;87.50;;;;;;5092976;28;20566;-71
2022/09/14 11:45:04;;;;;;;;;;;21.80;87.40;;;;;;5094463;28;20107;-71
2022/09/14 11:47:38;;;;;;;5.03;2.63;;;21.90;88.00;;;;;;5093373;28;20339;-71
2022/09/14 11:50:10;;;;;;;;;;;22.00;87.40;;;;;;5094554;28;20103;-71
2022/09/14 11:52:35;;;;;;;7.47;2.25;;;22.00;88.20;;;;;;5074925;28;20355;-71
2022/09/14 11:55:07;;;;;;;4.30;1.80;;;22.10;87.90;;;;;;5095119;28;20034;-71
2022/09/14 11:57:33;;;;;;;6.90;2.50;;;22.20;87.30;;;;;;5075678;28;20035;-71
2022/09/14 12:00:08;;;;;;;6.20;2.10;;;22.30;87.00;;;;;;5081326;28;20024;-71
2022/09/14 12:02:36;;;;;;;3.88;1.60;;;22.40;86.60;;;;;;5092453;28;20402;-70
2022/09/14 12:05:05;;;;;;;5.00;1.98;;;22.40;86.40;;;;;;5093784;28;20680;-70
2022/09/14 12:07:36;;;;;;;7.22;2.35;;;22.40;87.30;;;;;;5074432;28;20044;-71
2022/09/14 12:10:14;;;;;;;4.07;1.98;;;22.40;86.60;;;;;;5073665;28;20071;-71
2022/09/14 12:12:52;;;;;;;8.98;2.30;;;22.40;86.30;;;;;;5072686;28;20071;-71
2022/09/14 12:15:32;;;;;;;6.28;2.20;;;22.30;84.60;;;;;;5086530;28;20042;-71
2022/09/14 12:18:04;;;;;;;3.55;1.67;;;22.20;84.60;;;;;;5093416;28;20374;-70
2022/09/14 12:21:01;;;;;;;5.72;2.17;;;22.20;84.70;;;;;;5092308;28;20107;-69
2022/09/14 12:23:38;;;;;;;5.35;1.85;;;22.10;84.60;;;;;;5093328;28;20035;-70
2022/09/14 12:26:25;;;;;;;5.57;2.47;;;22.10;84.90;;;;;;5098391;28;20122;-71
2022/09/14 12:28:57;;;;;;;7.80;2.38;;;22.10;85.40;;;;;;5111913;28;20072;-71
2022/09/14 12:31:46;;;;;;;4.68;1.88;;;22.20;84.90;;;;;;5101535;28;20073;-71
2022/09/14 12:34:19;;;;;;;5.07;1.73;;;22.20;85.00;;;;;;5083678;28;20055;-70
2022/09/14 12:36:44;;;;;;;3.35;1.80;;;22.30;85.10;;;;;;5089538;28;20024;-71
2022/09/14 12:39:31;;;;;;;5.65;2.03;;;22.30;84.80;;;;;;5090207;28;20039;-70
2022/09/14 12:42:00;;;;;;;4.55;1.80;;;22.30;84.90;;;;;;5084930;28;20046;-70
2022/09/14 12:44:34;;;;;;;7.07;2.35;;;22.30;84.60;;;;;;5072815;28;20024;-71
2022/09/14 12:47:24;;;;;;;4.15;1.92;;;22.30;84.50;;;;;;5085525;28;20107;-71
2022/09/14 12:49:52;;;;;;;4.28;2.00;;;22.30;83.90;;;;;;5081899;28;20534;-71
2022/09/14 12:52:56;;;;;;;5.22;2.13;;;22.30;84.10;;;;;;5084538;28;20048;-71
2022/09/14 12:55:39;;;;;;;6.68;1.95;;;22.30;84.30;;;;;;5082701;28;20132;-70
2022/09/14 12:58:08;;;;;;;5.13;2.20;;;22.20;84.70;;;;;;5086061;28;20036;-70
2022/09/14 13:00:57;;;;;;;4.85;2.00;;;22.30;85.00;;;;;;5075750;28;20483;-70
2022/09/14 13:03:47;;;;;;;6.50;1.83;;;22.30;85.60;;;;;;5082922;28;20039;-70
2022/09/14 13:06:13;;;;;;;4.72;1.83;;;22.40;85.80;;;;;;5079446;28;20065;-70
2022/09/14 13:08:43;;;;;;;5.93;2.35;;;22.50;84.60;;;;;;5085429;28;20542;-69
2022/09/14 13:11:09;;;;;;;4.22;1.92;;;22.50;84.50;;;;;;5105363;28;20054;-69